Time;durP1;ratioP1;P1;durP2;ratioP2;P2;SDS_P1;SDS_P2;PMS_P1;PMS_P2;Temp;Humidity;BMP_temperature;BMP_pressure;BME280_temperature;BME280_humidity;BME280_pressure;Samples;Min_cycle;Max_cycle;Signal;HPM_P1;HPM_P2
2021/08/28 00:01:19;;;;;;;42.65;26.02;;;;;;;13.55;84.36;99965.80;1751470;81;25727;-69
2021/08/28 00:03:46;;;;;;;40.05;23.98;;;;;;;13.54;84.20;99964.78;1751651;81;27365;-69
2021/08/28 00:06:12;;;;;;;42.93;24.02;;;;;;;13.55;84.15;99967.70;1751447;81;25680;-69
2021/08/28 00:08:38;;;;;;;40.30;25.88;;;;;;;13.55;84.32;99963.63;1751448;81;25617;-69
2021/08/28 00:11:06;;;;;;;41.00;26.50;;;;;;;13.56;84.28;99969.30;1751507;81;25703;-69
2021/08/28 00:13:33;;;;;;;39.18;25.45;;;;;;;13.53;84.35;99960.46;1751679;81;25759;-70
2021/08/28 00:16:00;;;;;;;46.58;27.65;;;;;;;13.52;84.51;99964.30;1751585;81;27959;-70
2021/08/28 00:18:26;;;;;;;41.37;26.17;;;;;;;13.50;84.68;99955.15;1751554;81;25863;-69
2021/08/28 00:20:53;;;;;;;49.67;27.17;;;;;;;13.51;84.93;99953.22;1751552;81;25720;-69
2021/08/28 00:23:19;;;;;;;47.78;28.23;;;;;;;13.50;84.94;99947.00;1751275;81;25680;-69
2021/08/28 00:25:46;;;;;;;44.88;27.73;;;;;;;13.51;85.14;99943.70;1751647;81;25784;-69
2021/08/28 00:28:12;;;;;;;49.20;28.47;;;;;;;13.52;85.27;99947.45;1751469;81;28002;-69
2021/08/28 00:30:38;;;;;;;56.98;30.62;;;;;;;13.53;85.42;99946.30;1751235;81;25868;-69
2021/08/28 00:33:11;;;;;;;55.10;30.55;;;;;;;13.54;85.39;99952.55;1751568;81;25758;-69
2021/08/28 00:35:38;;;;;;;59.48;30.57;;;;;;;13.55;85.48;99944.61;1756636;81;25728;-69
2021/08/28 00:38:05;;;;;;;49.10;29.30;;;;;;;13.57;85.39;99942.34;1735646;82;25668;-70
2021/08/28 00:40:34;;;;;;;54.48;29.05;;;;;;;13.58;85.38;99937.93;1735662;82;27390;-70
2021/08/28 00:43:04;;;;;;;50.25;28.52;;;;;;;13.61;85.32;99946.77;1735573;82;25767;-70
2021/08/28 00:45:40;;;;;;;57.25;31.10;;;;;;;13.60;85.37;99944.39;1735593;82;25764;-71
2021/08/28 00:48:12;;;;;;;66.97;31.07;;;;;;;13.62;85.42;99947.02;1735661;82;26336;-70
2021/08/28 00:50:44;;;;;;;54.13;29.48;;;;;;;13.62;85.77;99951.09;1735769;82;25784;-70
2021/08/28 00:53:13;;;;;;;54.88;29.90;;;;;;;13.62;85.59;99951.63;1751478;81;27374;-70
2021/08/28 00:55:45;;;;;;;53.33;29.92;;;;;;;13.63;85.59;99949.94;1751708;81;25700;-70
2021/08/28 00:58:11;;;;;;;57.73;29.20;;;;;;;13.65;85.60;99950.97;1751641;81;25784;-70
2021/08/28 01:00:47;;;;;;;54.83;30.62;;;;;;;13.65;85.60;99956.40;1751441;81;26992;-70
2021/08/28 01:03:21;;;;;;;51.70;30.30;;;;;;;13.61;85.77;99956.86;1751505;81;25702;-69
2021/08/28 01:06:21;;;;;;;50.08;28.65;;;;;;;13.61;85.78;99959.00;1751604;81;27410;-70
2021/08/28 01:08:53;;;;;;;50.52;29.70;;;;;;;13.60;85.87;99961.51;1751303;81;25789;-71
2021/08/28 01:11:39;;;;;;;42.88;27.67;;;;;;;13.60;85.99;99962.87;1751553;81;25831;-70
2021/08/28 01:14:16;;;;;;;49.88;27.67;;;;;;;13.59;85.91;99963.20;1751615;81;25748;-69
2021/08/28 01:16:49;;;;;;;42.60;27.13;;;;;;;13.58;85.88;99963.74;1751473;81;25340;-70
2021/08/28 01:19:30;;;;;;;44.98;25.95;;;;;;;13.59;85.76;99967.27;1751670;81;28039;-70
2021/08/28 01:21:58;;;;;;;40.70;25.77;;;;;;;13.60;85.78;99971.56;1748353;81;26518;-69
2021/08/28 01:24:24;;;;;;;41.33;26.77;;;;;;;13.59;85.85;99968.63;1751385;81;25692;-70
2021/08/28 01:27:02;;;;;;;43.90;25.90;;;;;;;13.59;85.99;99970.78;1751582;81;26422;-70
2021/08/28 01:29:32;;;;;;;47.73;25.88;;;;;;;13.58;85.97;99968.39;1749635;81;25725;-69
2021/08/28 01:32:01;;;;;;;39.65;25.27;;;;;;;13.57;86.04;99970.87;1745398;81;27525;-70
2021/08/28 01:34:29;;;;;;;40.90;26.43;;;;;;;13.55;86.11;99968.52;1745991;81;25852;-70
2021/08/28 01:36:56;;;;;;;43.48;25.85;;;;;;;13.56;86.18;99971.45;1745383;82;25773;-70
2021/08/28 01:39:24;;;;;;;42.67;26.23;;;;;;;13.56;86.10;99972.02;1745356;82;26403;-69
2021/08/28 01:41:56;;;;;;;38.88;25.17;;;;;;;13.56;85.98;99969.30;1745620;81;25673;-69
2021/08/28 01:44:24;;;;;;;36.10;24.50;;;;;;;13.56;85.98;99964.66;1745682;81;28209;-69
2021/08/28 01:46:51;;;;;;;44.83;25.23;;;;;;;13.56;86.19;99967.38;1745565;82;26474;-69
2021/08/28 01:49:20;;;;;;;41.92;25.60;;;;;;;13.57;86.18;99972.23;1740768;82;25697;-69
2021/08/28 01:51:48;;;;;;;37.28;24.85;;;;;;;13.56;86.07;99964.66;1745659;81;25771;-70
2021/08/28 01:54:15;;;;;;;43.95;25.52;;;;;;;13.56;86.04;99970.09;1745483;82;25694;-70
2021/08/28 01:56:42;;;;;;;41.70;25.25;;;;;;;13.55;86.22;99967.70;1745739;82;27343;-70
2021/08/28 01:59:09;;;;;;;36.68;24.10;;;;;;;13.55;86.25;99967.70;1745504;81;25736;-70
2021/08/28 02:01:35;;;;;;;36.53;24.27;;;;;;;13.54;86.29;99972.36;1745474;82;25724;-69
2021/08/28 02:04:02;;;;;;;39.18;25.32;;;;;;;13.54;86.25;99969.64;1745538;82;25747;-71
2021/08/28 02:06:39;;;;;;;38.00;24.70;;;;;;;13.55;86.42;99972.59;1745611;81;25757;-70
2021/08/28 02:09:42;;;;;;;41.98;24.90;;;;;;;13.56;86.48;99973.38;1745357;82;27313;-70
2021/08/28 02:12:38;;;;;;;36.45;24.18;;;;;;;13.56;86.42;99968.73;1745515;82;25694;-70
2021/08/28 02:15:13;;;;;;;37.03;23.65;;;;;;;13.57;86.52;99966.25;1745481;82;26306;-70
2021/08/28 02:17:53;;;;;;;35.05;23.73;;;;;;;13.56;86.55;99963.87;1744360;82;27811;-70
2021/08/28 02:20:24;;;;;;;34.60;23.52;;;;;;;13.57;86.53;99970.33;1745135;82;25806;-69
2021/08/28 02:22:56;;;;;;;38.80;23.75;;;;;;;13.57;86.55;99962.72;1745472;82;27321;-69
2021/08/28 02:25:55;;;;;;;38.78;23.90;;;;;;;13.57;86.59;99960.00;1745385;82;27155;-69
2021/08/28 02:28:26;;;;;;;36.10;24.15;;;;;;;13.56;86.47;99956.50;1745595;82;25855;-69
2021/08/28 02:30:54;;;;;;;31.73;23.07;;;;;;;13.56;86.53;99957.08;1745426;82;25727;-69
2021/08/28 02:33:22;;;;;;;37.08;23.92;;;;;;;13.55;86.58;99956.83;1745710;82;26048;-69
2021/08/28 02:35:49;;;;;;;32.83;23.22;;;;;;;13.55;86.57;99954.12;1745700;81;27285;-69
2021/08/28 02:38:17;;;;;;;35.85;24.00;;;;;;;13.54;86.68;99955.27;1745336;82;25736;-68
2021/08/28 02:40:46;;;;;;;34.33;22.98;;;;;;;13.52;86.69;99953.42;1745725;82;25781;-69
2021/08/28 02:43:16;;;;;;;35.30;24.05;;;;;;;13.52;86.76;99957.50;1745595;82;25711;-69
2021/08/28 02:45:44;;;;;;;38.02;24.37;;;;;;;13.52;86.93;99962.94;1745591;81;25829;-69
2021/08/28 02:48:16;;;;;;;36.20;24.63;;;;;;;13.51;86.99;99964.09;1745660;82;27297;-68
2021/08/28 02:50:41;;;;;;;39.98;24.25;;;;;;;13.52;87.04;99960.22;1745571;81;26353;-69
2021/08/28 02:53:11;;;;;;;36.90;24.20;;;;;;;13.51;87.29;99956.72;1740818;81;25744;-69
2021/08/28 02:55:38;;;;;;;39.00;25.02;;;;;;;13.51;87.32;99954.00;1745671;82;26309;-69
2021/08/28 02:58:06;;;;;;;37.67;24.55;;;;;;;13.53;87.43;99955.03;1745657;81;25843;-69
2021/08/28 03:00:33;;;;;;;35.70;23.77;;;;;;;13.53;87.40;99953.67;1745347;82;27495;-69
2021/08/28 03:03:02;;;;;;;38.25;25.02;;;;;;;13.53;87.52;99950.38;1745419;82;25803;-68
2021/08/28 03:05:29;;;;;;;38.17;24.63;;;;;;;13.53;87.57;99949.02;1745784;82;25747;-69
2021/08/28 03:07:55;;;;;;;37.78;24.75;;;;;;;13.54;87.52;99951.19;1745548;82;26401;-69
2021/08/28 03:10:23;;;;;;;36.95;24.77;;;;;;;13.53;87.55;99945.52;1745646;82;26192;-69
2021/08/28 03:12:49;;;;;;;38.30;24.67;;;;;;;13.54;87.60;99938.97;1739475;82;26993;-69
2021/08/28 03:15:15;;;;;;;39.58;25.25;;;;;;;13.52;87.57;99940.66;1745354;82;26097;-69
2021/08/28 03:17:43;;;;;;;38.55;24.63;;;;;;;13.52;87.61;99943.38;1745555;82;25839;-70
2021/08/28 03:20:13;;;;;;;38.67;24.77;;;;;;;13.52;87.59;99943.92;1745680;81;25683;-68
2021/08/28 03:22:43;;;;;;;38.83;23.27;;;;;;;13.52;87.63;99942.56;1740480;82;25760;-69
2021/08/28 03:25:11;;;;;;;37.00;22.95;;;;;;;13.53;87.68;99940.08;1745556;81;27263;-69
2021/08/28 03:27:40;;;;;;;42.10;24.82;;;;;;;13.51;87.76;99934.98;1745669;81;25875;-70
2021/08/28 03:30:11;;;;;;;36.08;23.98;;;;;;;13.53;87.84;99940.08;1745592;81;25800;-70
2021/08/28 03:32:41;;;;;;;39.95;24.07;;;;;;;13.52;87.83;99935.77;1745471;82;25776;-70
2021/08/28 03:35:10;;;;;;;36.58;23.55;;;;;;;13.52;87.78;99935.22;1745619;82;25728;-67
2021/08/28 03:37:39;;;;;;;35.28;24.50;;;;;;;13.52;87.88;99939.84;1745637;82;27977;-69
2021/08/28 03:40:09;;;;;;;36.60;23.97;;;;;;;13.51;87.92;99934.98;1740774;81;25485;-69
2021/08/28 03:42:39;;;;;;;36.85;23.77;;;;;;;13.51;87.92;99936.34;1745548;82;25837;-68
2021/08/28 03:45:08;;;;;;;40.48;23.83;;;;;;;13.52;88.00;99935.77;1732589;81;26307;-68
2021/08/28 03:47:40;;;;;;;37.75;24.25;;;;;;;13.51;88.01;99939.63;1725007;83;25325;-68
2021/08/28 03:50:08;;;;;;;35.65;24.10;;;;;;;13.50;88.04;99935.31;1745678;82;27385;-68
2021/08/28 03:52:34;;;;;;;34.55;23.92;;;;;;;13.49;88.10;99937.25;1745393;81;25720;-69
2021/08/28 03:55:01;;;;;;;36.28;23.95;;;;;;;13.49;88.03;99942.69;1745653;82;26404;-69
2021/08/28 03:57:27;;;;;;;35.75;23.20;;;;;;;13.49;87.99;99941.90;1745634;82;25676;-68
2021/08/28 03:59:54;;;;;;;33.20;22.52;;;;;;;13.48;88.06;99946.52;1745538;81;25882;-69
2021/08/28 04:02:20;;;;;;;36.98;22.77;;;;;;;13.48;88.04;99951.95;1745731;81;27307;-69
2021/08/28 04:04:47;;;;;;;34.75;23.38;;;;;;;13.49;88.08;99951.41;1745701;82;25734;-69
2021/08/28 04:07:13;;;;;;;37.35;23.60;;;;;;;13.49;88.02;99953.55;1745511;82;25720;-69
2021/08/28 04:09:39;;;;;;;35.63;22.10;;;;;;;13.48;88.01;99950.59;1745695;82;26420;-70
2021/08/28 04:12:06;;;;;;;42.75;22.90;;;;;;;13.49;87.93;99953.55;1745690;82;25781;-70
2021/08/28 04:14:32;;;;;;;34.05;21.48;;;;;;;13.50;87.90;99951.62;1715998;82;27333;-69
2021/08/28 04:16:58;;;;;;;32.58;21.17;;;;;;;13.50;87.84;99955.69;1745605;82;26321;-69
2021/08/28 04:19:24;;;;;;;32.33;21.25;;;;;;;13.49;87.78;99952.77;1745886;81;26347;-69
2021/08/28 04:21:51;;;;;;;32.58;21.50;;;;;;;13.49;87.76;99962.28;1745462;81;25752;-69
2021/08/28 04:24:17;;;;;;;33.42;21.45;;;;;;;13.47;87.74;99965.33;1740903;81;25370;-69
2021/08/28 04:26:43;;;;;;;32.35;21.65;;;;;;;13.46;87.77;99962.37;1745695;81;27392;-69
2021/08/28 04:29:10;;;;;;;32.03;21.25;;;;;;;13.45;87.83;99967.02;1745417;82;25657;-70
2021/08/28 04:31:36;;;;;;;32.23;22.45;;;;;;;13.47;87.96;99978.09;1750329;81;26211;-70
2021/08/28 04:34:03;;;;;;;35.70;22.50;;;;;;;13.46;87.93;99978.67;1751595;81;25716;-70
2021/08/28 04:36:29;;;;;;;33.48;22.62;;;;;;;13.45;87.93;99974.38;1751395;81;25728;-70
2021/08/28 04:38:55;;;;;;;33.67;21.37;;;;;;;13.45;87.97;99979.24;1751646;81;27315;-69
2021/08/28 04:41:22;;;;;;;32.60;20.92;;;;;;;13.46;88.05;99982.74;1751469;81;25689;-69
2021/08/28 04:43:48;;;;;;;32.80;21.80;;;;;;;13.45;88.09;99984.67;1751460;81;26319;-69
2021/08/28 04:46:14;;;;;;;37.50;22.00;;;;;;;13.48;88.23;99989.20;1751487;81;26264;-69
2021/08/28 04:48:41;;;;;;;31.50;20.08;;;;;;;13.48;88.31;99987.84;1751710;81;25823;-70
2021/08/28 04:51:07;;;;;;;35.00;21.17;;;;;;;13.48;88.32;99985.91;1751433;81;27367;-69
2021/08/28 04:53:33;;;;;;;31.02;20.27;;;;;;;13.49;88.30;99989.45;1751584;81;26427;-69
2021/08/28 04:55:59;;;;;;;32.25;19.60;;;;;;;13.50;88.31;99990.47;1751682;81;25725;-69
2021/08/28 04:58:25;;;;;;;32.05;20.35;;;;;;;13.52;88.37;99990.11;1751269;81;26425;-69
2021/08/28 05:00:52;;;;;;;34.55;21.17;;;;;;;13.53;88.42;99987.63;1751517;81;25679;-69
2021/08/28 05:03:18;;;;;;;31.48;20.20;;;;;;;13.54;88.50;99994.09;1751513;81;27309;-69
2021/08/28 05:05:45;;;;;;;27.67;20.10;;;;;;;13.56;88.60;99986.97;1751388;81;25739;-69
2021/08/28 05:08:11;;;;;;;33.05;20.90;;;;;;;13.58;88.70;99984.70;1751532;81;25749;-69
2021/08/28 05:10:38;;;;;;;32.75;20.00;;;;;;;13.61;88.73;99989.47;1751448;81;25659;-69
2021/08/28 05:13:05;;;;;;;28.30;20.23;;;;;;;13.64;88.79;99994.23;1751378;81;25705;-69
2021/08/28 05:15:31;;;;;;;32.90;20.50;;;;;;;13.65;88.80;99990.37;1751521;81;27302;-69
2021/08/28 05:17:57;;;;;;;32.45;21.20;;;;;;;13.67;88.90;99985.38;1751363;81;25778;-69
2021/08/28 05:20:24;;;;;;;31.70;21.27;;;;;;;13.71;88.95;99988.25;1751371;81;25817;-70
2021/08/28 05:22:50;;;;;;;27.93;19.95;;;;;;;13.73;89.01;99991.41;1751470;81;26646;-70
2021/08/28 05:25:16;;;;;;;30.70;20.68;;;;;;;13.75;88.94;99994.01;1723836;81;25941;-70
2021/08/28 05:27:43;;;;;;;35.78;21.35;;;;;;;13.77;89.11;99990.95;1751449;81;27382;-70
2021/08/28 05:30:10;;;;;;;29.92;21.35;;;;;;;13.80;89.19;99989.72;1751389;81;25705;-70
2021/08/28 05:32:36;;;;;;;30.85;22.10;;;;;;;13.83;89.08;99996.41;1751532;81;25721;-70
2021/08/28 05:35:04;;;;;;;32.17;22.25;;;;;;;13.87;89.46;99990.52;1751345;81;25665;-70
2021/08/28 05:37:30;;;;;;;31.15;21.42;;;;;;;13.93;89.58;99991.89;1723895;81;25758;-70
2021/08/28 05:39:56;;;;;;;31.48;21.00;;;;;;;13.97;89.67;99992.79;1751496;81;27279;-69
2021/08/28 05:42:23;;;;;;;32.20;21.35;;;;;;;14.05;89.95;100005.28;1751348;81;25772;-70
2021/08/28 05:44:49;;;;;;;30.10;21.55;;;;;;;14.10;90.09;99994.97;1751558;81;25764;-68
2021/08/28 05:47:16;;;;;;;34.15;21.07;;;;;;;14.17;90.12;99995.18;1751444;81;25756;-67
2021/08/28 05:49:42;;;;;;;34.50;21.68;;;;;;;14.24;89.96;100000.63;1751358;81;25740;-67
2021/08/28 05:52:08;;;;;;;30.43;20.20;;;;;;;14.27;89.81;99998.02;1751535;81;27358;-68
2021/08/28 05:54:34;;;;;;;30.32;20.15;;;;;;;14.32;89.67;99999.70;1751437;81;25795;-67
2021/08/28 05:57:01;;;;;;;34.20;21.12;;;;;;;14.38;89.90;99997.77;1751340;81;25858;-68
2021/08/28 05:59:27;;;;;;;35.28;20.82;;;;;;;14.43;89.59;100004.13;1751469;81;25712;-68
2021/08/28 06:01:55;;;;;;;29.02;19.55;;;;;;;14.49;89.90;99998.66;1751413;81;25775;-67
2021/08/28 06:04:22;;;;;;;31.85;20.17;;;;;;;14.54;89.61;100003.88;1751395;81;27327;-67
2021/08/28 06:06:48;;;;;;;27.15;19.25;;;;;;;14.60;89.57;99999.03;1759824;80;25820;-68
2021/08/28 06:09:15;;;;;;;29.85;20.25;;;;;;;14.64;89.49;100000.73;1766871;80;26271;-66
2021/08/28 06:11:41;;;;;;;24.92;18.32;;;;;;;14.69;89.58;99995.05;1770954;80;26551;-68
2021/08/28 06:14:07;;;;;;;27.22;18.75;;;;;;;14.76;89.30;100005.34;1770483;80;26052;-68
2021/08/28 06:16:33;;;;;;;24.07;17.87;;;;;;;14.80;89.30;100000.80;1765914;80;27376;-69
2021/08/28 06:19:00;;;;;;;26.48;18.12;;;;;;;14.85;89.14;100002.50;1768148;80;25723;-68
2021/08/28 06:21:27;;;;;;;28.57;17.00;;;;;;;14.90;89.20;100002.27;1766117;80;25664;-67
2021/08/28 06:23:53;;;;;;;26.50;17.50;;;;;;;14.94;88.96;99995.76;1766425;80;25868;-67
2021/08/28 06:26:20;;;;;;;25.50;16.67;;;;;;;14.98;88.61;100001.88;1769102;80;25642;-66
2021/08/28 06:28:46;;;;;;;26.55;17.45;;;;;;;15.03;88.54;99998.91;1766874;80;27342;-66
2021/08/28 06:31:12;;;;;;;27.73;17.50;;;;;;;15.09;88.77;100002.41;1765846;79;26264;-66
2021/08/28 06:33:39;;;;;;;25.97;16.42;;;;;;;15.17;88.89;100008.05;1771234;80;25697;-63
2021/08/28 06:36:05;;;;;;;24.25;17.40;;;;;;;15.25;88.97;100001.66;1771244;80;25798;-63
2021/08/28 06:38:32;;;;;;;22.20;16.25;;;;;;;15.34;89.11;100005.05;1760220;80;25708;-63
2021/08/28 06:41:02;;;;;;;23.15;16.23;;;;;;;15.43;88.84;100008.40;1756094;81;27331;-63
2021/08/28 06:43:30;;;;;;;24.87;17.27;;;;;;;15.52;88.91;99998.69;1756140;81;25825;-63
2021/08/28 06:45:56;;;;;;;23.45;15.95;;;;;;;15.63;89.10;100002.50;1756334;81;25688;-63
2021/08/28 06:48:22;;;;;;;19.48;14.20;;;;;;;15.75;88.93;99997.58;1756096;81;25768;-63
2021/08/28 06:50:49;;;;;;;19.27;14.35;;;;;;;15.85;88.39;100001.69;1756375;81;25680;-63
2021/08/28 06:53:16;;;;;;;18.98;14.25;;;;;;;15.96;88.78;99998.67;1756358;81;28008;-63
2021/08/28 06:55:48;;;;;;;22.52;16.60;;;;;;;16.08;88.34;100001.88;1770147;79;25692;-63
2021/08/28 06:58:15;;;;;;;30.37;19.52;;;;;;;16.20;88.14;100003.72;1782070;80;25910;-63
2021/08/28 07:00:41;;;;;;;21.62;13.65;;;;;;;16.27;87.23;99999.78;1781875;80;26388;-64
2021/08/28 07:03:08;;;;;;;19.95;14.10;;;;;;;16.38;87.45;100002.20;1781832;80;25722;-63
2021/08/28 07:05:34;;;;;;;17.90;13.15;;;;;;;16.48;87.44;100004.96;1781850;80;28239;-63
2021/08/28 07:08:01;;;;;;;20.57;13.68;;;;;;;16.57;86.86;100005.55;1779513;79;26451;-64
2021/08/28 07:10:27;;;;;;;16.65;12.68;;;;;;;16.64;86.46;99999.45;1764577;80;25732;-64
2021/08/28 07:12:54;;;;;;;16.30;12.60;;;;;;;16.70;85.56;99996.67;1755432;80;27675;-63
2021/08/28 07:15:20;;;;;;;17.50;11.80;;;;;;;16.75;85.29;99994.20;1752464;80;25771;-63
2021/08/28 07:17:47;;;;;;;15.48;12.63;;;;;;;16.78;84.33;99994.86;1758214;80;27601;-66
2021/08/28 07:20:14;;;;;;;15.38;11.30;;;;;;;16.76;84.12;99995.80;1759443;80;25811;-65
2021/08/28 07:22:41;;;;;;;16.17;11.85;;;;;;;16.76;83.75;99994.44;1756737;80;26446;-65
2021/08/28 07:25:08;;;;;;;14.85;10.90;;;;;;;16.79;83.60;99995.09;1759094;80;25814;-66
2021/08/28 07:27:34;;;;;;;17.57;12.28;;;;;;;16.81;83.61;99997.66;1755483;80;26440;-67
2021/08/28 07:30:01;;;;;;;16.20;11.00;;;;;;;16.86;83.29;100004.83;1752816;80;27322;-67
2021/08/28 07:32:27;;;;;;;18.00;12.13;;;;;;;16.89;82.90;100003.30;1761211;80;26438;-66
2021/08/28 07:34:55;;;;;;;21.68;11.22;;;;;;;16.88;82.04;100005.84;1762253;80;26420;-66
2021/08/28 07:37:23;;;;;;;15.68;10.35;;;;;;;16.87;82.07;100004.24;1758935;80;26416;-66
2021/08/28 07:39:49;;;;;;;14.63;10.13;;;;;;;16.87;81.75;100005.02;1764776;80;26051;-66
2021/08/28 07:42:16;;;;;;;14.18;10.55;;;;;;;16.86;81.37;100002.67;1774586;80;27303;-66
2021/08/28 07:44:45;;;;;;;12.53;10.18;;;;;;;16.86;81.52;100000.73;1769132;80;26201;-66
2021/08/28 07:47:11;;;;;;;13.40;10.45;;;;;;;16.91;81.54;99998.30;1760336;80;26358;-66
2021/08/28 07:49:39;;;;;;;34.65;24.32;;;;;;;16.95;81.69;100000.52;1759953;80;25901;-66
2021/08/28 07:52:06;;;;;;;12.45;10.60;;;;;;;17.01;81.92;100004.55;1765534;79;26448;-66
2021/08/28 07:54:32;;;;;;;16.12;10.50;;;;;;;17.05;81.25;100009.50;1757599;80;27510;-66
2021/08/28 07:56:59;;;;;;;17.23;9.93;;;;;;;17.06;80.85;100002.90;1773792;80;25797;-66
2021/08/28 07:59:27;;;;;;;11.00;8.78;;;;;;;17.09;80.76;100004.89;1757953;79;25747;-67
2021/08/28 08:01:53;;;;;;;11.73;8.55;;;;;;;17.08;79.97;100005.27;1772161;80;26408;-67
2021/08/28 08:04:20;;;;;;;14.63;9.13;;;;;;;17.06;79.47;100002.90;1775650;80;25768;-66
2021/08/28 08:06:46;;;;;;;12.05;8.75;;;;;;;17.05;79.36;100006.77;1777268;80;28173;-66
2021/08/28 08:09:14;;;;;;;10.18;8.48;;;;;;;17.04;79.55;100012.00;1770385;80;25895;-66
2021/08/28 08:11:40;;;;;;;9.78;8.15;;;;;;;17.04;78.76;100004.39;1769561;80;25760;-65
2021/08/28 08:14:07;;;;;;;11.48;8.33;;;;;;;17.00;78.89;100005.69;1768842;80;25989;-67
2021/08/28 08:16:33;;;;;;;9.93;7.90;;;;;;;17.03;78.93;100001.46;1772129;80;25819;-67
2021/08/28 08:18:59;;;;;;;12.28;8.30;;;;;;;17.04;78.89;100007.13;1763682;80;27368;-67
2021/08/28 08:21:26;;;;;;;10.98;8.43;;;;;;;17.05;78.83;100004.03;1756616;81;26084;-68
2021/08/28 08:23:52;;;;;;;11.95;7.97;;;;;;;17.06;78.41;100000.16;1774593;80;26319;-67
2021/08/28 08:26:18;;;;;;;11.97;8.28;;;;;;;17.08;78.83;99999.23;1763789;79;26507;-67
2021/08/28 08:28:45;;;;;;;11.90;7.95;;;;;;;17.14;78.86;100005.18;1766773;80;25729;-67
2021/08/28 08:31:11;;;;;;;13.88;8.50;;;;;;;17.17;78.63;99998.41;1753520;79;27968;-67
2021/08/28 08:33:38;;;;;;;11.45;8.03;;;;;;;17.21;78.58;99997.70;1781537;79;26330;-67
2021/08/28 08:36:05;;;;;;;9.73;8.08;;;;;;;17.22;78.46;99992.46;1778618;79;26440;-68
2021/08/28 08:38:32;;;;;;;10.45;7.80;;;;;;;17.25;78.54;99996.62;1764478;80;25724;-68
2021/08/28 08:41:02;;;;;;;10.78;8.55;;;;;;;17.33;78.22;99998.91;1763644;81;26379;-67
2021/08/28 08:43:31;;;;;;;11.73;8.68;;;;;;;17.36;78.05;100002.28;1763895;81;27323;-68
2021/08/28 08:45:59;;;;;;;13.60;8.13;;;;;;;17.38;77.79;100001.92;1749953;81;26127;-67
2021/08/28 08:48:27;;;;;;;11.63;9.08;;;;;;;17.41;77.79;100006.67;1763871;80;25910;-67
2021/08/28 08:50:55;;;;;;;12.30;10.60;;;;;;;17.44;77.67;100003.22;1761755;81;25715;-67
2021/08/28 08:53:28;;;;;;;22.27;15.45;;;;;;;17.47;77.67;99997.81;1739262;81;25877;-69
2021/08/28 08:55:56;;;;;;;11.95;9.63;;;;;;;17.51;77.41;100001.98;1724607;82;27445;-68
2021/08/28 08:58:22;;;;;;;12.58;8.65;;;;;;;17.53;77.23;100003.19;1767773;80;26470;-67
2021/08/28 09:00:49;;;;;;;8.43;7.17;;;;;;;17.54;77.07;100012.98;1772008;80;25805;-67
2021/08/28 09:03:15;;;;;;;9.90;8.38;;;;;;;17.55;76.82;100009.11;1774811;80;25799;-67
2021/08/28 09:05:42;;;;;;;11.53;8.48;;;;;;;17.55;76.68;100009.11;1774650;80;25997;-67
2021/08/28 09:08:08;;;;;;;10.45;6.87;;;;;;;17.54;76.42;100018.45;1774884;80;27306;-67
2021/08/28 09:10:35;;;;;;;10.00;7.45;;;;;;;17.57;76.25;100024.34;1692682;83;25847;-65
2021/08/28 09:13:17;;;;;;;9.93;7.47;;;;;;;17.57;76.56;100020.23;1670995;85;25747;-67
2021/08/28 09:15:47;;;;;;;9.73;7.83;;;;;;;17.61;76.26;100017.02;1671064;85;25770;-69
2021/08/28 09:18:16;;;;;;;9.45;7.17;;;;;;;17.62;76.21;100025.41;1675007;85;26499;-67
2021/08/28 09:20:43;;;;;;;9.10;6.30;;;;;;;17.65;76.30;100021.95;1688217;83;27346;-73
2021/08/28 09:23:18;;;;;;;12.55;6.80;;;;;;;17.67;75.69;100019.64;1671034;84;25732;-65
2021/08/28 09:25:53;;;;;;;9.78;6.75;;;;;;;17.69;75.92;100029.08;1701749;82;25814;-64
2021/08/28 09:28:32;;;;;;;11.48;7.37;;;;;;;17.74;75.99;100027.41;1665573;85;26635;-71
2021/08/28 09:31:02;;;;;;;10.53;7.65;;;;;;;17.77;75.98;100031.94;1637685;86;26062;-64
2021/08/28 09:33:34;;;;;;;10.35;6.35;;;;;;;17.87;76.06;100036.83;1614743;87;27404;-64
2021/08/28 09:35:59;;;;;;;10.50;6.60;;;;;;;17.95;76.13;100039.91;1697737;82;25788;-62
2021/08/28 09:38:26;;;;;;;9.65;6.50;;;;;;;18.03;76.12;100038.88;1715965;82;25807;-61
2021/08/28 09:40:59;;;;;;;8.38;6.08;;;;;;;18.13;75.88;100039.41;1746856;81;25764;-61
2021/08/28 09:43:47;;;;;;;9.48;6.50;;;;;;;18.20;75.37;100042.25;1739928;81;25889;-61
2021/08/28 09:46:13;;;;;;;8.20;6.30;;;;;;;18.24;75.06;100041.16;1675782;84;27346;-61
2021/08/28 17:24:31;;;;;;;8.45;6.78;;;;;;;17.69;67.73;100063.27;1884537;76;25671;-63
2021/08/28 17:26:57;;;;;;;13.30;8.85;;;;;;;17.50;68.07;100053.16;1855714;77;25650;-63
2021/08/28 17:29:26;;;;;;;10.30;8.55;;;;;;;17.39;68.12;100054.09;1855705;77;29370;-64
2021/08/28 17:31:54;;;;;;;11.40;8.43;;;;;;;17.29;68.38;100056.83;1785557;80;25846;-63
2021/08/28 17:34:20;;;;;;;12.10;8.05;;;;;;;17.21;68.31;100049.63;1818015;78;26336;-62
2021/08/28 17:36:47;;;;;;;10.20;8.50;;;;;;;17.13;68.64;100052.80;1785792;80;25716;-64
2021/08/28 17:39:13;;;;;;;11.08;8.65;;;;;;;17.06;68.88;100058.91;1785831;80;26471;-62
2021/08/28 17:41:42;;;;;;;11.63;8.48;;;;;;;16.96;68.93;100070.41;1785557;80;28238;-62
2021/08/28 17:44:08;;;;;;;12.88;9.35;;;;;;;16.87;69.70;100068.43;1785611;80;25722;-62
2021/08/28 17:46:36;;;;;;;11.93;8.03;;;;;;;16.76;69.56;100070.91;1754629;80;25762;-62
2021/08/28 17:49:05;;;;;;;11.48;7.55;;;;;;;16.66;69.59;100076.34;1785725;80;25724;-61
2021/08/28 17:51:32;;;;;;;11.20;7.30;;;;;;;16.56;69.73;100072.20;1785745;80;25838;-61
2021/08/28 17:53:59;;;;;;;12.70;7.90;;;;;;;16.50;70.05;100075.00;1785433;80;27543;-62
2021/08/28 17:56:26;;;;;;;10.88;8.28;;;;;;;16.40;70.05;100082.37;1785765;80;26006;-62
2021/08/28 17:58:53;;;;;;;13.40;8.73;;;;;;;16.29;70.62;100079.36;1785833;80;25639;-63
2021/08/28 18:01:25;;;;;;;14.18;9.95;;;;;;;16.19;70.39;100087.52;1785329;80;26161;-63
2021/08/28 18:03:50;;;;;;;15.18;10.23;;;;;;;16.11;71.03;100083.61;1784106;80;25639;-62
2021/08/28 18:06:17;;;;;;;10.70;8.95;;;;;;;16.01;71.13;100080.23;1785616;80;27458;-74
2021/08/28 18:08:43;;;;;;;13.28;9.90;;;;;;;15.92;71.18;100078.81;1752785;81;25776;-74
2021/08/28 18:11:10;;;;;;;13.10;10.13;;;;;;;15.85;71.45;100076.69;1785367;80;25671;-71
2021/08/28 18:13:37;;;;;;;13.20;10.50;;;;;;;15.76;71.89;100070.03;1785483;80;26380;-72
2021/08/28 18:16:04;;;;;;;16.40;11.45;;;;;;;15.69;72.08;100073.33;1785500;80;25715;-71
2021/08/28 18:18:36;;;;;;;17.35;11.90;;;;;;;15.60;72.23;100071.34;1725134;81;27731;-72
2021/08/28 18:21:00;;;;;;;18.12;13.50;;;;;;;15.52;72.52;100072.87;1783985;80;25850;-70
2021/08/28 18:23:26;;;;;;;17.87;12.20;;;;;;;15.45;73.01;100075.61;1785530;80;25699;-72
2021/08/28 18:25:52;;;;;;;16.10;12.33;;;;;;;15.38;73.20;100078.72;1754656;80;25746;-71
2021/08/28 18:28:19;;;;;;;18.60;12.90;;;;;;;15.29;73.17;100082.38;1785645;80;25979;-68
2021/08/28 18:30:45;;;;;;;15.23;11.30;;;;;;;15.22;73.13;100088.98;1785491;80;27552;-69
2021/08/28 18:33:14;;;;;;;15.85;10.58;;;;;;;15.16;73.17;100086.84;1785083;80;25782;-69
2021/08/28 18:35:41;;;;;;;16.25;9.78;;;;;;;15.11;73.30;100091.37;1785075;80;25735;-67
2021/08/28 18:38:08;;;;;;;12.47;9.93;;;;;;;15.07;73.72;100094.58;1784928;80;26397;-67
2021/08/28 18:40:36;;;;;;;13.22;9.65;;;;;;;15.02;73.67;100099.48;1785197;80;25474;-67
2021/08/28 18:43:02;;;;;;;15.78;11.12;;;;;;;14.98;74.14;100101.28;1784539;80;27896;-67
2021/08/28 18:45:29;;;;;;;18.40;10.45;;;;;;;14.91;74.08;100103.22;1810326;78;25723;-66
2021/08/28 18:47:55;;;;;;;19.32;10.72;;;;;;;14.84;73.79;100101.08;1750137;81;26325;-67
2021/08/28 18:50:22;;;;;;;20.05;12.50;;;;;;;14.77;74.30;100106.88;1750808;81;25820;-68
2021/08/28 18:52:49;;;;;;;16.70;10.30;;;;;;;14.69;74.42;100105.85;1750952;81;26448;-67
2021/08/28 18:55:16;;;;;;;11.78;9.95;;;;;;;14.60;74.81;100111.99;1781741;80;27447;-69
2021/08/28 18:57:42;;;;;;;17.42;12.95;;;;;;;14.52;74.66;100115.01;1781731;80;25742;-69